createdAt,value
2018-09-02T00:01:39.620Z,102213.43
2018-09-02T00:04:08.753Z,102215.89
2018-09-02T00:06:37.417Z,102217.54
2018-09-02T00:09:06.777Z,102215.22
2018-09-02T00:11:35.437Z,102210.41
2018-09-02T00:14:04.168Z,102213.22
2018-09-02T00:16:32.649Z,102212.34
2018-09-02T00:19:01.461Z,102216.07
2018-09-02T00:21:29.971Z,102216.07
2018-09-02T00:23:58.691Z,102213.67
2018-09-02T00:26:27.418Z,102219.09
2018-09-02T00:28:56.007Z,102227.52
2018-09-02T00:31:24.835Z,102213.95
2018-09-02T00:33:53.518Z,102219.91
2018-09-02T00:36:22.154Z,102221.41
2018-09-02T00:38:50.717Z,102212.67
2018-09-02T00:41:19.374Z,102223.21
2018-09-02T00:43:48.705Z,102227.67
2018-09-02T00:46:17.257Z,102229.42
2018-09-02T00:48:45.812Z,102227.28
2018-09-02T00:51:14.396Z,102227.02
2018-09-02T00:53:43.060Z,102226.59
2018-09-02T00:56:11.669Z,102226.45
2018-09-02T00:58:40.837Z,102219.41
2018-09-02T01:01:09.374Z,102217.27
2018-09-02T01:03:38.164Z,102212.38
2018-09-02T01:06:06.682Z,102213.42
2018-09-02T01:08:35.558Z,102218.50
2018-09-02T01:11:04.153Z,102217.63
2018-09-02T01:13:32.878Z,102216.80
2018-09-02T01:16:02.403Z,102216.54
2018-09-02T01:18:31.081Z,102208.09
2018-09-02T01:20:59.745Z,102198.08
2018-09-02T01:23:28.229Z,102207.09
2018-09-02T01:25:56.777Z,102198.13
2018-09-02T01:28:25.288Z,102201.89
2018-09-02T01:30:53.844Z,102202.50
2018-09-02T01:33:22.349Z,102204.55
2018-09-02T01:35:50.911Z,102199.92
2018-09-02T01:38:20.149Z,102193.63
2018-09-02T01:40:48.794Z,102188.77
2018-09-02T01:43:18.204Z,102193.63
2018-09-02T01:45:47.205Z,102196.37
2018-09-02T01:48:15.742Z,102194.74
2018-09-02T01:50:44.428Z,102198.11
2018-09-02T01:53:13.052Z,102203.08
2018-09-02T01:55:41.756Z,102206.72
2018-09-02T01:58:10.528Z,102207.40
2018-09-02T02:00:39.659Z,102204.17
2018-09-02T02:03:08.472Z,102211.11
2018-09-02T02:05:37.842Z,102208.41
2018-09-02T02:08:06.685Z,102205.86
2018-09-02T02:10:36.247Z,102205.98
2018-09-02T02:13:04.893Z,102205.20
2018-09-02T02:15:33.860Z,102207.56
2018-09-02T02:18:02.472Z,102203.49
2018-09-02T02:20:32.073Z,102207.84
2018-09-02T02:23:00.657Z,102201.87
2018-09-02T02:25:29.167Z,102194.97
2018-09-02T02:27:57.844Z,102198.08
2018-09-02T02:30:26.346Z,102192.55
2018-09-02T02:32:55.358Z,102195.30
2018-09-02T02:35:24.017Z,102194.98
2018-09-02T02:37:52.577Z,102199.37
2018-09-02T02:40:21.537Z,102196.18
2018-09-02T02:42:50.896Z,102195.78
2018-09-02T02:45:20.486Z,102191.64
2018-09-02T02:47:49.757Z,102194.22
2018-09-02T02:50:18.579Z,102187.84
2018-09-02T02:52:52.547Z,102189.28
2018-09-02T02:55:21.240Z,102191.52
2018-09-02T02:57:50.233Z,102188.88
2018-09-02T03:00:19.464Z,102194.09
2018-09-02T03:02:48.583Z,102190.78
2018-09-02T03:05:17.257Z,102184.27
2018-09-02T03:07:45.860Z,102186.09
2018-09-02T03:10:14.479Z,102187.18
2018-09-02T03:12:43.685Z,102187.93
2018-09-02T03:15:12.428Z,102190.03
2018-09-02T03:17:40.942Z,102190.44
2018-09-02T03:20:10.599Z,102191.03
2018-09-02T03:22:39.994Z,102183.87
2018-09-02T03:25:08.906Z,102183.47
2018-09-02T03:27:38.131Z,102185.30
2018-09-02T03:30:06.817Z,102180.97
2018-09-02T03:32:35.520Z,102175.55
2018-09-02T03:35:04.123Z,102176.91
2018-09-02T03:37:32.862Z,102179.39
2018-09-02T03:40:01.614Z,102179.66
2018-09-02T03:42:30.229Z,102178.47
2018-09-02T03:44:58.844Z,102185.08
2018-09-02T03:47:27.369Z,102189.34
2018-09-02T03:49:55.969Z,102193.48
2018-09-02T03:52:24.851Z,102189.02
2018-09-02T03:54:53.900Z,102189.89
2018-09-02T03:57:23.200Z,102185.48
2018-09-02T03:59:51.830Z,102177.92
2018-09-02T04:02:20.416Z,102175.73
2018-09-02T04:04:48.955Z,102181.02
2018-09-02T04:07:17.513Z,102176.81
2018-09-02T04:09:46.160Z,102176.69
2018-09-02T04:12:14.792Z,102178.52
2018-09-02T04:14:43.432Z,102177.20
2018-09-02T04:17:11.966Z,102167.26
2018-09-02T04:19:41.016Z,102167.14
2018-09-02T04:22:09.597Z,102170.72
2018-09-02T04:24:38.283Z,102168.41
2018-09-02T04:27:09.022Z,102175.18
2018-09-02T04:29:37.559Z,102175.66
2018-09-02T04:32:07.080Z,102179.92
2018-09-02T04:34:35.734Z,102176.50
2018-09-02T04:37:05.232Z,102178.02
2018-09-02T04:39:34.310Z,102184.58
2018-09-02T04:42:02.943Z,102188.88
2018-09-02T04:44:31.560Z,102184.34
2018-09-02T04:47:00.126Z,102179.41
2018-09-02T04:49:28.823Z,102177.53
2018-09-02T04:51:57.444Z,102185.66
2018-09-02T04:54:26.091Z,102181.80
2018-09-02T04:56:54.853Z,102179.48
2018-09-02T04:59:23.500Z,102183.42
2018-09-02T05:01:52.107Z,102185.25
2018-09-02T05:04:20.879Z,102181.20
2018-09-02T05:06:49.534Z,102185.66
2018-09-02T05:09:18.244Z,102184.34
2018-09-02T05:11:46.885Z,102182.11
2018-09-02T05:14:15.744Z,102182.47
2018-09-02T05:16:44.355Z,102178.81
2018-09-02T05:19:12.942Z,102179.64
2018-09-02T05:21:41.559Z,102191.66
2018-09-02T05:24:10.148Z,102188.84
2018-09-02T05:26:38.868Z,102186.13
2018-09-02T05:29:07.582Z,102183.83
2018-09-02T05:31:36.709Z,102183.58
2018-09-02T05:34:05.390Z,102187.77
2018-09-02T05:36:34.051Z,102178.84
2018-09-02T05:39:02.618Z,102184.38
2018-09-02T05:41:31.143Z,102187.88
2018-09-02T05:43:59.890Z,102184.66
2018-09-02T05:46:29.043Z,102182.34
2018-09-02T05:48:57.717Z,102187.12
2018-09-02T05:51:26.944Z,102191.45
2018-09-02T05:53:55.750Z,102188.66
2018-09-02T05:56:24.423Z,102184.20
2018-09-02T05:58:53.702Z,102180.19
2018-09-02T06:01:22.792Z,102177.56
2018-09-02T06:03:51.493Z,102176.69
2018-09-02T06:06:20.122Z,102179.31
2018-09-02T06:08:48.782Z,102179.00
2018-09-02T06:11:17.846Z,102177.64
2018-09-02T06:13:46.846Z,102174.94
2018-09-02T06:16:15.670Z,102176.56
2018-09-02T06:18:44.205Z,102176.41
2018-09-02T06:21:12.933Z,102167.48
2018-09-02T06:23:41.857Z,102172.22
2018-09-02T06:26:11.324Z,102167.63
2018-09-02T06:28:39.870Z,102172.77
2018-09-02T06:31:08.518Z,102166.59
2018-09-02T06:33:37.664Z,102176.48
2018-09-02T06:36:06.551Z,102172.41
2018-09-02T06:38:35.728Z,102167.22
2018-09-02T06:41:04.543Z,102169.45
2018-09-02T06:43:33.646Z,102168.89
2018-09-02T06:46:02.314Z,102160.89
2018-09-02T06:48:31.172Z,102166.63
2018-09-02T06:50:59.734Z,102158.77
2018-09-02T06:53:28.313Z,102160.47
2018-09-02T06:55:56.883Z,102154.71
2018-09-02T06:58:25.693Z,102156.52
2018-09-02T07:00:55.296Z,102157.60
2018-09-02T07:03:24.256Z,102158.27
2018-09-02T07:05:53.573Z,102159.34
2018-09-02T07:08:22.715Z,102153.36
2018-09-02T07:10:52.018Z,102157.55
2018-09-02T07:13:20.594Z,102151.56
2018-09-02T07:15:50.048Z,102147.76
2018-09-02T07:18:19.128Z,102149.80
2018-09-02T07:20:49.691Z,102153.51
2018-09-02T07:23:18.350Z,102151.36
2018-09-02T07:25:47.112Z,102157.38
2018-09-02T07:28:15.692Z,102160.20
2018-09-02T07:30:44.335Z,102154.41
2018-09-02T07:33:13.183Z,102162.02
2018-09-02T07:35:41.830Z,102161.30
2018-09-02T07:38:11.339Z,102167.08
2018-09-02T07:40:40.520Z,102160.02
2018-09-02T07:43:09.728Z,102159.77
2018-09-02T07:45:38.322Z,102156.01
2018-09-02T07:48:06.856Z,102155.86
2018-09-02T07:50:35.637Z,102160.57
2018-09-02T07:53:04.533Z,102158.28
2018-09-02T07:55:33.324Z,102151.89
2018-09-02T07:58:01.939Z,102161.87
2018-09-02T08:00:31.641Z,102150.72
2018-09-02T08:03:01.079Z,102154.79
2018-09-02T08:05:30.108Z,102155.42
2018-09-02T08:07:58.814Z,102152.16
2018-09-02T08:10:27.785Z,102153.97
2018-09-02T08:12:56.865Z,102152.78
2018-09-02T08:15:25.312Z,102152.44
2018-09-02T08:17:53.958Z,102155.86
2018-09-02T08:20:22.544Z,102144.30
2018-09-02T08:22:51.266Z,102151.78
2018-09-02T08:25:19.815Z,102148.46
2018-09-02T08:27:50.057Z,102149.02
2018-09-02T08:30:19.256Z,102151.19
2018-09-02T08:32:48.506Z,102149.83
2018-09-02T08:35:17.237Z,102160.76
2018-09-02T08:37:47.105Z,102158.22
2018-09-02T08:40:15.755Z,102152.31
2018-09-02T08:42:44.981Z,102154.05
2018-09-02T08:45:13.646Z,102150.29
2018-09-02T08:47:42.202Z,102156.93
2018-09-02T08:50:11.131Z,102152.37
2018-09-02T08:52:39.870Z,102149.41
2018-09-02T08:55:09.013Z,102155.81
2018-09-02T08:57:37.778Z,102154.70
2018-09-02T09:00:08.286Z,102162.70
2018-09-02T09:02:37.323Z,102155.66
2018-09-02T09:05:06.945Z,102154.61
2018-09-02T09:07:36.255Z,102154.94
2018-09-02T09:10:05.111Z,102157.56
2018-09-02T09:12:33.632Z,102154.45
2018-09-02T09:15:02.543Z,102154.16
2018-09-02T09:17:31.143Z,102153.73
2018-09-02T09:19:59.933Z,102153.42
2018-09-02T09:22:28.549Z,102145.58
2018-09-02T09:24:57.281Z,102149.84
2018-09-02T09:27:25.919Z,102142.80
2018-09-02T09:29:54.604Z,102145.03
2018-09-02T09:32:23.400Z,102149.25
2018-09-02T09:34:52.055Z,102142.55
2018-09-02T09:37:20.833Z,102146.77
2018-09-02T09:39:49.415Z,102138.08
2018-09-02T09:42:19.672Z,102151.31
2018-09-02T09:44:48.362Z,102150.84
2018-09-02T09:47:17.167Z,102148.13
2018-09-02T09:49:45.906Z,102142.88
2018-09-02T09:52:16.348Z,102134.06
2018-09-02T09:54:45.301Z,102139.44
2018-09-02T09:57:14.060Z,102130.16
2018-09-02T09:59:43.010Z,102131.40
2018-09-02T10:02:11.753Z,102119.41
2018-09-02T10:04:40.674Z,102121.63
2018-09-02T10:07:09.973Z,102122.75
2018-09-02T10:09:38.552Z,102120.42
2018-09-02T10:12:07.119Z,102128.73
2018-09-02T10:14:35.935Z,102122.98
2018-09-02T10:17:04.553Z,102120.03
2018-09-02T10:19:33.815Z,102117.31
2018-09-02T10:22:02.730Z,102118.91
2018-09-02T10:24:31.353Z,102113.23
2018-09-02T10:27:00.083Z,102111.94
2018-09-02T10:29:29.620Z,102103.38
2018-09-02T10:31:58.912Z,102099.81
2018-09-02T10:34:28.126Z,102094.13
2018-09-02T10:36:56.776Z,102094.67
2018-09-02T10:39:25.484Z,102093.59
2018-09-02T10:41:54.064Z,102083.75
2018-09-02T10:44:22.729Z,102077.34
2018-09-02T10:46:51.935Z,102075.93
2018-09-02T10:49:20.585Z,102060.78
2018-09-02T10:51:49.214Z,102054.91
2018-09-02T10:54:17.811Z,102059.44
2018-09-02T10:56:46.925Z,102054.64
2018-09-02T10:59:15.627Z,102044.77
2018-09-02T11:01:43.949Z,102040.86
2018-09-02T11:04:12.371Z,102035.60
2018-09-02T11:06:41.166Z,102037.52
2018-09-02T11:09:11.110Z,102033.92
2018-09-02T11:11:39.668Z,102022.84
2018-09-02T11:14:09.079Z,102021.04
2018-09-02T11:16:38.273Z,102015.33
2018-09-02T11:19:07.123Z,102011.08
2018-09-02T11:21:35.918Z,102010.70
2018-09-02T11:24:04.618Z,102009.87
2018-09-02T11:26:33.204Z,102001.06
2018-09-02T11:29:02.478Z,102001.27
2018-09-02T11:31:31.927Z,101997.40
2018-09-02T11:34:00.788Z,101991.19
2018-09-02T11:36:29.469Z,101988.84
2018-09-02T11:38:58.172Z,101981.38
2018-09-02T11:41:26.720Z,101971.08
2018-09-02T11:43:55.512Z,101968.95
2018-09-02T11:46:24.705Z,101962.19
2018-09-02T11:48:53.877Z,101960.61
2018-09-02T11:51:23.481Z,101958.30
2018-09-02T11:53:53.631Z,101958.33
2018-09-02T11:56:22.242Z,101943.17
2018-09-02T11:58:50.843Z,101940.06
2018-09-02T12:01:19.594Z,101940.83
2018-09-02T12:03:49.052Z,101942.95
2018-09-02T12:06:17.826Z,101928.94
2018-09-02T12:08:46.359Z,101932.33
2018-09-02T12:11:14.848Z,101928.89
2018-09-02T12:13:43.711Z,101923.23
2018-09-02T12:16:12.799Z,101920.33
2018-09-02T12:18:41.898Z,101924.03
2018-09-02T12:21:10.562Z,101927.52
2018-09-02T12:23:39.500Z,101933.58
2018-09-02T12:26:08.841Z,101925.22
2018-09-02T12:28:37.523Z,101921.52
2018-09-02T12:31:06.192Z,101917.54
2018-09-02T12:33:35.658Z,101912.77
2018-09-02T12:36:05.382Z,101914.12
2018-09-02T12:38:34.131Z,101913.81
2018-09-02T12:41:03.581Z,101916.77
2018-09-02T12:43:32.686Z,101902.86
2018-09-02T12:46:01.287Z,101908.50
2018-09-02T12:48:30.016Z,101907.92
2018-09-02T12:50:58.875Z,101899.62
2018-09-02T12:53:27.362Z,101900.57
2018-09-02T12:55:55.938Z,101891.34
2018-09-02T12:58:25.013Z,101895.61
2018-09-02T13:00:53.599Z,101897.06
2018-09-02T13:03:22.284Z,101899.59
2018-09-02T13:05:51.392Z,101896.15
2018-09-02T13:08:20.471Z,101894.41
2018-09-02T13:10:48.998Z,101882.00
2018-09-02T13:13:17.584Z,101893.09
2018-09-02T13:15:46.375Z,101896.80
2018-09-02T13:18:15.767Z,101899.00
2018-09-02T13:20:44.441Z,101893.78
2018-09-02T13:23:12.950Z,101895.80
2018-09-02T13:25:42.144Z,101901.39
2018-09-02T13:28:10.592Z,101896.12
2018-09-02T13:30:40.359Z,101891.56
2018-09-02T13:33:09.381Z,101895.86
2018-09-02T13:35:38.070Z,101896.81
2018-09-02T13:38:07.649Z,101900.11
2018-09-02T13:40:36.572Z,101895.11
2018-09-02T13:43:05.766Z,101889.28
2018-09-02T13:45:34.431Z,101888.19
2018-09-02T13:48:03.897Z,101887.41
2018-09-02T13:50:32.777Z,101886.98
2018-09-02T13:53:02.077Z,101887.20
2018-09-02T13:55:31.185Z,101878.97
2018-09-02T13:57:59.974Z,101879.22
2018-09-02T14:00:28.592Z,101873.34
2018-09-02T14:02:57.095Z,101878.47
2018-09-02T14:05:25.557Z,101875.02
2018-09-02T14:07:54.407Z,101870.14
2018-09-02T14:10:23.097Z,101873.77
2018-09-02T14:12:51.652Z,101871.81
2018-09-02T14:15:20.168Z,101864.60
2018-09-02T14:17:49.272Z,101855.55
2018-09-02T14:20:18.038Z,101853.97
2018-09-02T14:22:47.039Z,101855.70
2018-09-02T14:25:15.385Z,101846.28
2018-09-02T14:27:43.737Z,101847.02
2018-09-02T14:30:12.105Z,101843.77
2018-09-02T14:32:40.504Z,101836.72
2018-09-02T14:35:08.946Z,101838.31
2018-09-02T14:37:37.356Z,101829.77
2018-09-02T14:40:05.977Z,101828.25
2018-09-02T14:42:34.388Z,101827.39
2018-09-02T14:45:02.820Z,101825.16
2018-09-02T14:47:31.186Z,101818.36
2018-09-02T14:49:59.788Z,101815.63
2018-09-02T14:52:28.141Z,101822.70
2018-09-02T14:54:56.511Z,101823.48
2018-09-02T14:57:24.902Z,101817.27
2018-09-02T14:59:53.274Z,101824.47
2018-09-02T15:02:21.606Z,101812.30
2018-09-02T15:04:49.942Z,101814.53
2018-09-02T15:07:18.274Z,101817.41
2018-09-02T15:09:46.632Z,101810.57
2018-09-02T15:12:15.017Z,101815.91
2018-09-02T15:14:43.373Z,101811.43
2018-09-02T15:17:11.756Z,101814.40
2018-09-02T15:19:40.553Z,101816.00
2018-09-02T15:22:09.045Z,101816.55
2018-09-02T15:24:39.252Z,101805.46
2018-09-02T15:27:07.791Z,101799.12
2018-09-02T15:29:36.312Z,101801.22
2018-09-02T15:32:04.760Z,101796.25
2018-09-02T15:34:33.364Z,101800.76
2018-09-02T15:37:01.725Z,101797.39
2018-09-02T15:39:30.190Z,101794.66
2018-09-02T15:41:58.514Z,101796.52
2018-09-02T15:44:26.930Z,101794.19
2018-09-02T15:46:55.504Z,101794.05
2018-09-02T15:49:24.209Z,101793.28
2018-09-02T15:51:52.616Z,101796.89
2018-09-02T15:54:21.593Z,101794.88
2018-09-02T15:56:50.020Z,101796.02
2018-09-02T15:59:18.432Z,101792.64
2018-09-02T16:01:46.875Z,101791.64
2018-09-02T16:04:15.223Z,101787.54
2018-09-02T16:06:43.878Z,101787.67
2018-09-02T16:09:12.960Z,101784.44
2018-09-02T16:11:41.347Z,101781.30
2018-09-02T16:14:10.260Z,101782.43
2018-09-02T16:16:38.940Z,101784.66
2018-09-02T16:19:07.438Z,101787.63
2018-09-02T16:21:35.834Z,101783.16
2018-09-02T16:24:04.256Z,101774.45
2018-09-02T16:26:32.701Z,101769.84
2018-09-02T16:29:01.125Z,101775.81
2018-09-02T16:31:29.464Z,101787.26
2018-09-02T16:33:57.986Z,101780.38
2018-09-02T16:36:26.371Z,101782.03
2018-09-02T16:38:54.745Z,101778.55
2018-09-02T16:41:23.136Z,101775.91
2018-09-02T16:43:51.520Z,101778.41
2018-09-02T16:46:20.013Z,101777.05
2018-09-02T16:48:48.439Z,101776.54
2018-09-02T16:51:16.837Z,101780.66
2018-09-02T16:53:45.303Z,101777.64
2018-09-02T16:56:13.711Z,101781.38
2018-09-02T16:58:42.281Z,101776.59
2018-09-02T17:01:10.741Z,101778.23
2018-09-02T17:03:42.403Z,101773.86
2018-09-02T17:06:10.913Z,101778.42
2018-09-02T17:08:39.860Z,101779.93
2018-09-02T17:11:08.514Z,101780.02
2018-09-02T17:13:37.181Z,101772.94
2018-09-02T17:16:05.889Z,101771.43
2018-09-02T17:18:34.523Z,101771.30
2018-09-02T17:21:03.134Z,101771.57
2018-09-02T17:23:31.647Z,101769.48
2018-09-02T17:26:00.155Z,101771.67
2018-09-02T17:28:28.692Z,101764.83
2018-09-02T17:30:57.166Z,101764.61
2018-09-02T17:33:25.656Z,101763.61
2018-09-02T17:35:54.257Z,101762.23
2018-09-02T17:38:22.787Z,101763.47
2018-09-02T17:40:51.365Z,101766.46
2018-09-02T17:43:20.538Z,101763.73
2018-09-02T17:45:50.141Z,101767.55
2018-09-02T17:48:19.830Z,101761.95
2018-09-02T17:50:49.079Z,101760.22
2018-09-02T17:53:17.635Z,101764.95
2018-09-02T17:55:46.276Z,101760.22
2018-09-02T17:58:15.142Z,101760.59
2018-09-02T18:00:46.080Z,101757.71
2018-09-02T18:03:14.742Z,101761.22
2018-09-02T18:05:43.173Z,101764.95
2018-09-02T18:08:11.766Z,101762.45
2018-09-02T18:10:40.329Z,101759.49
2018-09-02T18:13:08.854Z,101763.09
2018-09-02T18:15:37.475Z,101771.78
2018-09-02T18:18:06.196Z,101772.14
2018-09-02T18:20:34.755Z,101775.12
2018-09-02T18:23:03.168Z,101775.34
2018-09-02T18:25:31.701Z,101778.58
2018-09-02T18:28:02.555Z,101774.89
2018-09-02T18:30:31.075Z,101774.38
2018-09-02T18:32:59.532Z,101775.34
2018-09-02T18:35:27.992Z,101774.75
2018-09-02T18:37:56.416Z,101778.33
2018-09-02T18:40:24.901Z,101775.05
2018-09-02T18:42:54.228Z,101777.06
2018-09-02T18:45:22.948Z,101768.63
2018-09-02T18:47:51.271Z,101770.58
2018-09-02T18:50:19.914Z,101769.59
2018-09-02T18:52:48.607Z,101774.18
2018-09-02T18:55:17.125Z,101771.67
2018-09-02T18:57:45.557Z,101773.54
2018-09-02T19:00:14.020Z,101768.33
2018-09-02T19:02:43.416Z,101768.18
2018-09-02T19:05:11.828Z,101769.64
2018-09-02T19:07:40.305Z,101766.39
2018-09-02T19:10:08.825Z,101767.62
2018-09-02T19:12:37.320Z,101760.66
2018-09-02T19:15:06.318Z,101767.76
2018-09-02T19:17:34.925Z,101762.27
2018-09-02T19:20:03.438Z,101757.77
2018-09-02T19:22:31.934Z,101763.09
2018-09-02T19:25:00.570Z,101762.44
2018-09-02T19:27:29.029Z,101759.83
2018-09-02T19:29:57.789Z,101755.58
2018-09-02T19:32:26.351Z,101759.53
2018-09-02T19:34:54.951Z,101754.63
2018-09-02T19:37:23.430Z,101754.09
2018-09-02T19:39:51.865Z,101752.58
2018-09-02T19:42:20.391Z,101744.52
2018-09-02T19:44:49.024Z,101734.52
2018-09-02T19:47:17.876Z,101735.14
2018-09-02T19:49:47.556Z,101728.63
2018-09-02T19:52:16.111Z,101728.37
2018-09-02T19:54:44.689Z,101723.14
2018-09-02T19:57:13.089Z,101716.16
2018-09-02T19:59:41.836Z,101719.72
2018-09-02T20:02:10.635Z,101719.56
2018-09-02T20:04:39.187Z,101717.17
2018-09-02T20:07:07.868Z,101715.66
2018-09-02T20:09:36.457Z,101718.47
2018-09-02T20:12:05.107Z,101716.95
2018-09-02T20:14:33.653Z,101716.58
2018-09-02T20:17:03.222Z,101713.69
2018-09-02T20:19:32.000Z,101710.18
2018-09-02T20:22:00.897Z,101712.54
2018-09-02T20:24:29.616Z,101704.56
2018-09-02T20:26:58.383Z,101701.09
2018-09-02T20:29:26.978Z,101701.80
2018-09-02T20:31:56.440Z,101699.69
2018-09-02T20:34:24.978Z,101698.50
2018-09-02T20:36:53.671Z,101700.36
2018-09-02T20:39:22.294Z,101703.09
2018-09-02T20:41:51.580Z,101700.58
2018-09-02T20:44:20.316Z,101704.05
2018-09-02T20:46:49.051Z,101699.00
2018-09-02T20:49:17.754Z,101700.36
2018-09-02T20:51:46.310Z,101699.80
2018-09-02T20:54:15.114Z,101702.06
2018-09-02T20:56:43.772Z,101706.61
2018-09-02T20:59:12.532Z,101702.36
2018-09-02T21:01:41.057Z,101698.27
2018-09-02T21:04:09.604Z,101693.22
2018-09-02T21:06:38.227Z,101691.61
2018-09-02T21:09:10.630Z,101688.51
2018-09-02T21:11:39.160Z,101694.67
2018-09-02T21:14:07.955Z,101692.06
2018-09-02T21:16:36.937Z,101684.87
2018-09-02T21:19:05.947Z,101690.91
2018-09-02T21:21:34.722Z,101691.24
2018-09-02T21:24:03.392Z,101699.09
2018-09-02T21:26:31.984Z,101686.70
2018-09-02T21:29:01.154Z,101687.44
2018-09-02T21:31:30.015Z,101689.02
2018-09-02T21:33:58.615Z,101687.64
2018-09-02T21:36:27.141Z,101693.09
2018-09-02T21:38:55.808Z,101686.66
2018-09-02T21:41:24.476Z,101687.86
2018-09-02T21:43:53.231Z,101684.75
2018-09-02T21:46:21.873Z,101683.60
2018-09-02T21:48:50.307Z,101684.09
2018-09-02T21:51:18.917Z,101682.23
2018-09-02T21:53:47.532Z,101680.99
2018-09-02T21:56:16.103Z,101673.14
2018-09-02T21:58:44.696Z,101673.02
2018-09-02T22:01:14.143Z,101672.36
2018-09-02T22:03:42.634Z,101662.70
2018-09-02T22:06:11.158Z,101660.09
2018-09-02T22:08:39.831Z,101658.84
2018-09-02T22:11:08.366Z,101659.72
2018-09-02T22:13:37.031Z,101652.12
2018-09-02T22:16:05.749Z,101646.91
2018-09-02T22:18:34.441Z,101647.20
2018-09-02T22:21:03.155Z,101647.00
2018-09-02T22:23:31.760Z,101645.75
2018-09-02T22:26:00.442Z,101646.13
2018-09-02T22:28:29.065Z,101640.55
2018-09-02T22:30:57.700Z,101637.95
2018-09-02T22:33:26.236Z,101632.21
2018-09-02T22:35:54.940Z,101630.97
2018-09-02T22:38:23.690Z,101631.47
2018-09-02T22:40:52.705Z,101625.52
2018-09-02T22:43:21.878Z,101623.66
2018-09-02T22:45:50.635Z,101627.25
2018-09-02T22:48:19.752Z,101625.56
2018-09-02T22:50:48.460Z,101632.45
2018-09-02T22:53:17.291Z,101625.42
2018-09-02T22:55:46.990Z,101630.09
2018-09-02T22:58:15.883Z,101634.19
2018-09-02T23:00:44.660Z,101631.62
2018-09-02T23:03:13.845Z,101628.16
2018-09-02T23:05:42.625Z,101622.36
2018-09-02T23:08:11.344Z,101619.17
2018-09-02T23:10:40.278Z,101622.03
2018-09-02T23:13:09.141Z,101624.55
2018-09-02T23:15:37.876Z,101615.95
2018-09-02T23:18:06.656Z,101610.66
2018-09-02T23:20:35.677Z,101621.08
2018-09-02T23:23:04.478Z,101606.14
2018-09-02T23:25:34.470Z,101598.39
2018-09-02T23:28:03.055Z,101602.64
2018-09-02T23:30:31.860Z,101604.00
2018-09-02T23:33:00.743Z,101599.81
2018-09-02T23:35:29.461Z,101600.41
2018-09-02T23:37:58.346Z,101599.91
2018-09-02T23:40:27.271Z,101605.77
2018-09-02T23:42:56.286Z,101607.51
2018-09-02T23:45:25.043Z,101600.31
2018-09-02T23:47:53.812Z,101600.31
2018-09-02T23:50:25.635Z,101597.96
2018-09-02T23:52:54.413Z,101597.96
2018-09-02T23:55:23.213Z,101593.34
2018-09-02T23:57:52.007Z,101591.48
